sensor_id;sensor_type;location;lat;lon;timestamp;pressure;altitude;pressure_sealevel;temperature;humidity
62126;BME280;48112;53.282;6.150;2022-12-29T00:00:27;99738.41;;;16.12;62.98
62126;BME280;48112;53.282;6.150;2022-12-29T00:01:29;99741.94;;;16.12;62.92
62126;BME280;48112;53.282;6.150;2022-12-29T00:02:31;99746.59;;;16.12;63.12
62126;BME280;48112;53.282;6.150;2022-12-29T00:03:34;99734.91;;;16.11;63.07
62126;BME280;48112;53.282;6.150;2022-12-29T00:04:36;99743.09;;;16.11;63.11
62126;BME280;48112;53.282;6.150;2022-12-29T00:05:38;99735.69;;;16.12;63.13
62126;BME280;48112;53.282;6.150;2022-12-29T00:06:40;99737.63;;;16.11;63.10
62126;BME280;48112;53.282;6.150;2022-12-29T00:07:43;99734.16;;;16.11;63.15
62126;BME280;48112;53.282;6.150;2022-12-29T00:08:44;99734.91;;;16.11;63.22
62126;BME280;48112;53.282;6.150;2022-12-29T00:09:48;99732.19;;;16.11;62.90
62126;BME280;48112;53.282;6.150;2022-12-29T00:10:49;99737.63;;;16.11;63.18
62126;BME280;48112;53.282;6.150;2022-12-29T00:11:53;99739.59;;;16.11;62.96
62126;BME280;48112;53.282;6.150;2022-12-29T00:12:55;99729.47;;;16.11;63.00
62126;BME280;48112;53.282;6.150;2022-12-29T00:14:15;99733.38;;;16.10;62.98
62126;BME280;48112;53.282;6.150;2022-12-29T00:15:35;99730.25;;;16.12;63.20
62126;BME280;48112;53.282;6.150;2022-12-29T00:16:41;99727.94;;;16.10;63.11
62126;BME280;48112;53.282;6.150;2022-12-29T00:17:44;99727.94;;;16.10;63.21
62126;BME280;48112;53.282;6.150;2022-12-29T00:18:46;99736.09;;;16.10;63.24
62126;BME280;48112;53.282;6.150;2022-12-29T00:19:48;99727.16;;;16.10;63.01
62126;BME280;48112;53.282;6.150;2022-12-29T00:21:08;99716.25;;;16.10;63.21
62126;BME280;48112;53.282;6.150;2022-12-29T00:22:30;99737.25;;;16.09;63.08
62126;BME280;48112;53.282;6.150;2022-12-29T00:23:50;99731.06;;;16.09;63.27
62126;BME280;48112;53.282;6.150;2022-12-29T00:25:11;99712.75;;;16.09;63.03
62126;BME280;48112;53.282;6.150;2022-12-29T00:26:31;99713.53;;;16.10;62.95
62126;BME280;48112;53.282;6.150;2022-12-29T00:27:53;99720.16;;;16.09;63.25
62126;BME280;48112;53.282;6.150;2022-12-29T00:29:13;99724.84;;;16.08;63.06
62126;BME280;48112;53.282;6.150;2022-12-29T00:30:33;99730.28;;;16.08;63.13
62126;BME280;48112;53.282;6.150;2022-12-29T00:31:55;99725.63;;;16.09;62.95
62126;BME280;48112;53.282;6.150;2022-12-29T00:33:17;99722.13;;;16.08;63.02
62126;BME280;48112;53.282;6.150;2022-12-29T00:34:37;99722.13;;;16.08;63.17
62126;BME280;48112;53.282;6.150;2022-12-29T00:35:59;99710.44;;;16.08;63.31
62126;BME280;48112;53.282;6.150;2022-12-29T00:37:03;99716.66;;;16.08;63.15
62126;BME280;48112;53.282;6.150;2022-12-29T00:38:05;99716.66;;;16.08;63.18
62126;BME280;48112;53.282;6.150;2022-12-29T00:39:26;99708.50;;;16.08;62.99
62126;BME280;48112;53.282;6.150;2022-12-29T00:41:01;99704.66;;;16.06;63.21
62126;BME280;48112;53.282;6.150;2022-12-29T00:42:21;99696.81;;;16.08;63.07
62126;BME280;48112;53.282;6.150;2022-12-29T00:43:43;99707.72;;;16.08;63.02
62126;BME280;48112;53.282;6.150;2022-12-29T00:45:03;99699.53;;;16.08;63.03
62126;BME280;48112;53.282;6.150;2022-12-29T00:46:06;99718.59;;;16.08;63.07
62126;BME280;48112;53.282;6.150;2022-12-29T00:47:07;99704.25;;;16.07;63.21
62126;BME280;48112;53.282;6.150;2022-12-29T00:48:10;99704.66;;;16.06;63.15
62126;BME280;48112;53.282;6.150;2022-12-29T00:49:12;99713.16;;;16.08;63.04
62126;BME280;48112;53.282;6.150;2022-12-29T00:50:32;99706.19;;;16.07;63.02
62126;BME280;48112;53.282;6.150;2022-12-29T00:51:34;99717.06;;;16.07;62.96
62126;BME280;48112;53.282;6.150;2022-12-29T00:52:36;99703.88;;;16.05;63.02
62126;BME280;48112;53.282;6.150;2022-12-29T00:53:39;99701.13;;;16.05;63.30
62126;BME280;48112;53.282;6.150;2022-12-29T00:54:40;99704.66;;;16.06;63.28
62126;BME280;48112;53.282;6.150;2022-12-29T00:55:46;99708.13;;;16.06;63.21
62126;BME280;48112;53.282;6.150;2022-12-29T00:56:47;99722.91;;;16.05;62.97
62126;BME280;48112;53.282;6.150;2022-12-29T00:57:50;99708.53;;;16.05;63.14
62126;BME280;48112;53.282;6.150;2022-12-29T00:58:53;99703.88;;;16.05;63.16
62126;BME280;48112;53.282;6.150;2022-12-29T00:59:56;99715.53;;;16.06;63.02
62126;BME280;48112;53.282;6.150;2022-12-29T01:01:02;99698.41;;;16.05;63.04
62126;BME280;48112;53.282;6.150;2022-12-29T01:02:03;99703.06;;;16.05;63.09
62126;BME280;48112;53.282;6.150;2022-12-29T01:03:06;99714.75;;;16.05;63.06
62126;BME280;48112;53.282;6.150;2022-12-29T01:04:08;99709.31;;;16.05;63.26
62126;BME280;48112;53.282;6.150;2022-12-29T01:05:11;99703.88;;;16.05;63.15
62126;BME280;48112;53.282;6.150;2022-12-29T01:06:13;99702.31;;;16.04;63.10
62126;BME280;48112;53.282;6.150;2022-12-29T01:07:15;99692.97;;;16.05;63.13
62126;BME280;48112;53.282;6.150;2022-12-29T01:08:18;99698.41;;;16.05;63.19
62126;BME280;48112;53.282;6.150;2022-12-29T01:09:21;99702.31;;;16.04;63.15
62126;BME280;48112;53.282;6.150;2022-12-29T01:10:41;99714.38;;;16.03;63.01
62126;BME280;48112;53.282;6.150;2022-12-29T01:11:43;99691.44;;;16.04;63.05
62126;BME280;48112;53.282;6.150;2022-12-29T01:12:45;99702.31;;;16.04;62.98
62126;BME280;48112;53.282;6.150;2022-12-29T01:13:48;99702.31;;;16.04;63.05
62126;BME280;48112;53.282;6.150;2022-12-29T01:14:51;99710.50;;;16.04;63.06
62126;BME280;48112;53.282;6.150;2022-12-29T01:15:54;99696.88;;;16.04;63.23
62126;BME280;48112;53.282;6.150;2022-12-29T01:16:56;99701.13;;;16.05;62.97
62126;BME280;48112;53.282;6.150;2022-12-29T01:17:58;99704.28;;;16.04;63.01
62126;BME280;48112;53.282;6.150;2022-12-29T01:19:00;99702.31;;;16.04;63.02
62126;BME280;48112;53.282;6.150;2022-12-29T01:20:03;99699.59;;;16.04;63.22
62126;BME280;48112;53.282;6.150;2022-12-29T01:21:05;99703.50;;;16.03;63.12
62126;BME280;48112;53.282;6.150;2022-12-29T01:22:08;99696.09;;;16.04;63.28
62126;BME280;48112;53.282;6.150;2022-12-29T01:23:09;99707.00;;;16.04;63.18
62126;BME280;48112;53.282;6.150;2022-12-29T01:24:12;99701.53;;;16.04;63.14
62126;BME280;48112;53.282;6.150;2022-12-29T01:25:14;99707.00;;;16.04;62.95
62126;BME280;48112;53.282;6.150;2022-12-29T01:26:17;99692.59;;;16.03;63.31
62126;BME280;48112;53.282;6.150;2022-12-29T01:27:19;99689.88;;;16.03;63.04
62126;BME280;48112;53.282;6.150;2022-12-29T01:28:22;99696.88;;;16.04;62.97
62126;BME280;48112;53.282;6.150;2022-12-29T01:29:26;99686.41;;;16.03;63.34
62126;BME280;48112;53.282;6.150;2022-12-29T01:30:30;99689.13;;;16.03;63.29
62126;BME280;48112;53.282;6.150;2022-12-29T01:31:32;99689.88;;;16.03;63.23
62126;BME280;48112;53.282;6.150;2022-12-29T01:32:34;99696.09;;;16.04;63.02
62126;BME280;48112;53.282;6.150;2022-12-29T01:33:36;99689.13;;;16.03;63.20
62126;BME280;48112;53.282;6.150;2022-12-29T01:34:39;99683.69;;;16.03;63.10
62126;BME280;48112;53.282;6.150;2022-12-29T01:35:40;99673.53;;;16.03;63.20
62126;BME280;48112;53.282;6.150;2022-12-29T01:36:43;99677.44;;;16.02;63.10
62126;BME280;48112;53.282;6.150;2022-12-29T01:37:45;99669.28;;;16.02;63.01
62126;BME280;48112;53.282;6.150;2022-12-29T01:38:48;99688.34;;;16.02;63.30
62126;BME280;48112;53.282;6.150;2022-12-29T01:39:50;99677.44;;;16.02;63.11
62126;BME280;48112;53.282;6.150;2022-12-29T01:40:53;99674.72;;;16.02;63.21
62126;BME280;48112;53.282;6.150;2022-12-29T01:41:54;99682.91;;;16.02;63.07
62126;BME280;48112;53.282;6.150;2022-12-29T01:42:57;99674.72;;;16.02;63.04
62126;BME280;48112;53.282;6.150;2022-12-29T01:43:59;99661.13;;;16.02;63.25
62126;BME280;48112;53.282;6.150;2022-12-29T01:45:02;99663.84;;;16.02;63.10
62126;BME280;48112;53.282;6.150;2022-12-29T01:46:06;99666.56;;;16.02;62.99
62126;BME280;48112;53.282;6.150;2022-12-29T01:47:15;99669.69;;;16.01;63.13
62126;BME280;48112;53.282;6.150;2022-12-29T01:48:20;99668.50;;;16.02;63.04
62126;BME280;48112;53.282;6.150;2022-12-29T01:49:23;99667.34;;;16.03;63.35
62126;BME280;48112;53.282;6.150;2022-12-29T01:50:26;99669.69;;;16.01;63.04
62126;BME280;48112;53.282;6.150;2022-12-29T01:51:30;99661.13;;;16.02;63.25
62126;BME280;48112;53.282;6.150;2022-12-29T01:52:33;99666.56;;;16.02;63.07
62126;BME280;48112;53.282;6.150;2022-12-29T01:53:37;99670.47;;;16.01;63.21
62126;BME280;48112;53.282;6.150;2022-12-29T01:54:39;99671.22;;;16.02;63.29
62126;BME280;48112;53.282;6.150;2022-12-29T01:55:46;99662.31;;;16.01;62.96
62126;BME280;48112;53.282;6.150;2022-12-29T01:56:50;99675.91;;;16.01;63.14
62126;BME280;48112;53.282;6.150;2022-12-29T01:57:53;99675.91;;;16.01;63.31
62126;BME280;48112;53.282;6.150;2022-12-29T01:58:59;99661.13;;;16.02;63.01
62126;BME280;48112;53.282;6.150;2022-12-29T02:00:04;99665.78;;;16.02;63.10
62126;BME280;48112;53.282;6.150;2022-12-29T02:01:16;99665.03;;;16.01;63.19
62126;BME280;48112;53.282;6.150;2022-12-29T02:02:20;99654.13;;;16.01;63.00
62126;BME280;48112;53.282;6.150;2022-12-29T02:03:22;99655.66;;;16.02;63.30
62126;BME280;48112;53.282;6.150;2022-12-29T02:04:29;99653.34;;;16.01;63.21
62126;BME280;48112;53.282;6.150;2022-12-29T02:05:33;99652.56;;;16.00;63.11
62126;BME280;48112;53.282;6.150;2022-12-29T02:06:40;99647.13;;;16.00;63.22
62126;BME280;48112;53.282;6.150;2022-12-29T02:07:44;99640.53;;;16.01;63.27
62126;BME280;48112;53.282;6.150;2022-12-29T02:08:47;99651.41;;;16.01;62.83
62126;BME280;48112;53.282;6.150;2022-12-29T02:09:51;99651.41;;;16.01;63.11
62126;BME280;48112;53.282;6.150;2022-12-29T02:10:55;99656.84;;;16.01;63.15
62126;BME280;48112;53.282;6.150;2022-12-29T02:11:57;99653.34;;;16.01;63.03
62126;BME280;48112;53.282;6.150;2022-12-29T02:13:00;99647.91;;;16.01;63.20
62126;BME280;48112;53.282;6.150;2022-12-29T02:14:05;99647.13;;;16.00;63.07
62126;BME280;48112;53.282;6.150;2022-12-29T02:15:10;99652.56;;;16.00;62.92
62126;BME280;48112;53.282;6.150;2022-12-29T02:16:18;99653.34;;;16.01;63.24
62126;BME280;48112;53.282;6.150;2022-12-29T02:17:27;99655.28;;;16.00;63.20
62126;BME280;48112;53.282;6.150;2022-12-29T02:18:35;99652.56;;;16.00;63.13
62126;BME280;48112;53.282;6.150;2022-12-29T02:19:49;99651.78;;;16.00;63.14
62126;BME280;48112;53.282;6.150;2022-12-29T02:22:27;99662.69;;;16.00;63.09
62126;BME280;48112;53.282;6.150;2022-12-29T02:23:48;99664.66;;;15.99;63.23
62126;BME280;48112;53.282;6.150;2022-12-29T02:25:03;99651.03;;;15.99;63.24
62126;BME280;48112;53.282;6.150;2022-12-29T02:26:16;99652.56;;;16.00;63.01
62126;BME280;48112;53.282;6.150;2022-12-29T02:27:28;99652.56;;;16.00;62.97
62126;BME280;48112;53.282;6.150;2022-12-29T02:28:41;99651.03;;;15.99;63.24
62126;BME280;48112;53.282;6.150;2022-12-29T02:29:58;99640.91;;;16.00;63.05
62126;BME280;48112;53.282;6.150;2022-12-29T02:31:07;99623.03;;;15.99;63.07
62126;BME280;48112;53.282;6.150;2022-12-29T02:32:15;99653.75;;;15.99;63.14
62126;BME280;48112;53.282;6.150;2022-12-29T02:33:22;99656.47;;;15.99;63.40
62126;BME280;48112;53.282;6.150;2022-12-29T02:34:26;99620.31;;;15.99;63.27
62126;BME280;48112;53.282;6.150;2022-12-29T02:35:33;99640.91;;;16.00;63.03
62126;BME280;48112;53.282;6.150;2022-12-29T02:36:40;99631.19;;;15.99;63.15
62126;BME280;48112;53.282;6.150;2022-12-29T02:37:46;99639.38;;;15.99;63.30
62126;BME280;48112;53.282;6.150;2022-12-29T02:38:56;99621.09;;;15.99;63.17
62126;BME280;48112;53.282;6.150;2022-12-29T02:40:02;99637.41;;;15.99;63.18
62126;BME280;48112;53.282;6.150;2022-12-29T02:41:08;99628.47;;;15.99;63.05
62126;BME280;48112;53.282;6.150;2022-12-29T02:42:12;99629.25;;;15.99;63.00
62126;BME280;48112;53.282;6.150;2022-12-29T02:43:19;99649.47;;;15.98;63.23
62126;BME280;48112;53.282;6.150;2022-12-29T02:44:26;99633.13;;;15.98;63.14
62126;BME280;48112;53.282;6.150;2022-12-29T02:45:30;99622.25;;;15.98;63.26
62126;BME280;48112;53.282;6.150;2022-12-29T02:46:35;99616.81;;;15.98;63.05
62126;BME280;48112;53.282;6.150;2022-12-29T02:47:41;99624.97;;;15.98;62.96
62126;BME280;48112;53.282;6.150;2022-12-29T02:48:45;99622.25;;;15.98;63.26
62126;BME280;48112;53.282;6.150;2022-12-29T02:49:49;99624.22;;;15.98;63.17
62126;BME280;48112;53.282;6.150;2022-12-29T02:50:57;99615.28;;;15.97;63.13
62126;BME280;48112;53.282;6.150;2022-12-29T02:52:02;99622.25;;;15.98;63.18
62126;BME280;48112;53.282;6.150;2022-12-29T02:53:05;99632.38;;;15.98;63.30
62126;BME280;48112;53.282;6.150;2022-12-29T02:54:09;99620.31;;;15.99;63.03
62126;BME280;48112;53.282;6.150;2022-12-29T02:55:30;99616.06;;;15.98;63.27
62126;BME280;48112;53.282;6.150;2022-12-29T02:56:31;99618.78;;;15.98;63.27
62126;BME280;48112;53.282;6.150;2022-12-29T02:57:34;99629.66;;;15.98;63.20
62126;BME280;48112;53.282;6.150;2022-12-29T02:58:36;99612.53;;;15.97;63.07
62126;BME280;48112;53.282;6.150;2022-12-29T02:59:38;99626.16;;;15.97;63.11
62126;BME280;48112;53.282;6.150;2022-12-29T03:00:46;99618.00;;;15.97;63.21
62126;BME280;48112;53.282;6.150;2022-12-29T03:01:59;99628.88;;;15.97;63.26
62126;BME280;48112;53.282;6.150;2022-12-29T03:03:28;99623.44;;;15.97;63.08
62126;BME280;48112;53.282;6.150;2022-12-29T03:04:36;99626.16;;;15.97;63.01
62126;BME280;48112;53.282;6.150;2022-12-29T03:05:55;99626.16;;;15.97;63.15
62126;BME280;48112;53.282;6.150;2022-12-29T03:07:02;99624.97;;;15.98;63.34
62126;BME280;48112;53.282;6.150;2022-12-29T03:08:13;99618.00;;;15.97;63.10
62126;BME280;48112;53.282;6.150;2022-12-29T03:09:20;99609.81;;;15.97;62.96
62126;BME280;48112;53.282;6.150;2022-12-29T03:10:30;99615.28;;;15.97;62.95
62126;BME280;48112;53.282;6.150;2022-12-29T03:11:38;99608.28;;;15.96;63.18
62126;BME280;48112;53.282;6.150;2022-12-29T03:13:02;99615.28;;;15.97;63.00
62126;BME280;48112;53.282;6.150;2022-12-29T03:14:25;99612.53;;;15.97;63.26
62126;BME280;48112;53.282;6.150;2022-12-29T03:15:49;99596.22;;;15.97;63.12
62126;BME280;48112;53.282;6.150;2022-12-29T03:17:06;99607.50;;;15.96;63.17
62126;BME280;48112;53.282;6.150;2022-12-29T03:18:13;99626.16;;;15.97;63.29
62126;BME280;48112;53.282;6.150;2022-12-29T03:19:19;99615.28;;;15.97;63.05
62126;BME280;48112;53.282;6.150;2022-12-29T03:20:23;99621.91;;;15.96;63.27
62126;BME280;48112;53.282;6.150;2022-12-29T03:21:31;99619.94;;;15.97;63.16
62126;BME280;48112;53.282;6.150;2022-12-29T03:22:53;99619.94;;;15.97;63.29
62126;BME280;48112;53.282;6.150;2022-12-29T03:23:59;99617.22;;;15.97;63.18
62126;BME280;48112;53.282;6.150;2022-12-29T03:25:02;99604.38;;;15.97;63.12
62126;BME280;48112;53.282;6.150;2022-12-29T03:26:06;99609.44;;;15.95;63.24
62126;BME280;48112;53.282;6.150;2022-12-29T03:27:14;99612.53;;;15.97;63.20
62126;BME280;48112;53.282;6.150;2022-12-29T03:28:20;99619.19;;;15.96;63.20
62126;BME280;48112;53.282;6.150;2022-12-29T03:29:24;99613.72;;;15.96;63.20
62126;BME280;48112;53.282;6.150;2022-12-29T03:30:30;99611.00;;;15.96;62.98
62126;BME280;48112;53.282;6.150;2022-12-29T03:31:34;99611.00;;;15.96;63.08
62126;BME280;48112;53.282;6.150;2022-12-29T03:32:40;99619.19;;;15.96;63.18
62126;BME280;48112;53.282;6.150;2022-12-29T03:33:44;99614.16;;;15.95;63.04
62126;BME280;48112;53.282;6.150;2022-12-29T03:34:47;99607.50;;;15.96;63.23
62126;BME280;48112;53.282;6.150;2022-12-29T03:35:50;99613.72;;;15.96;63.20
62126;BME280;48112;53.282;6.150;2022-12-29T03:36:57;99619.19;;;15.96;63.23
62126;BME280;48112;53.282;6.150;2022-12-29T03:38:02;99618.41;;;15.96;63.01
62126;BME280;48112;53.282;6.150;2022-12-29T03:39:09;99609.44;;;15.95;63.08
62126;BME280;48112;53.282;6.150;2022-12-29T03:40:13;99607.50;;;15.96;63.11
62126;BME280;48112;53.282;6.150;2022-12-29T03:41:16;99616.47;;;15.96;63.21
62126;BME280;48112;53.282;6.150;2022-12-29T03:42:19;99612.94;;;15.96;63.22
62126;BME280;48112;53.282;6.150;2022-12-29T03:43:23;99614.91;;;15.95;63.04
62126;BME280;48112;53.282;6.150;2022-12-29T03:44:31;99617.63;;;15.95;63.00
62126;BME280;48112;53.282;6.150;2022-12-29T03:45:34;99618.41;;;15.96;63.00
62126;BME280;48112;53.282;6.150;2022-12-29T03:46:36;99616.88;;;15.95;62.97
62126;BME280;48112;53.282;6.150;2022-12-29T03:47:40;99628.50;;;15.95;63.01
62126;BME280;48112;53.282;6.150;2022-12-29T03:48:42;99623.84;;;15.96;63.03
62126;BME280;48112;53.282;6.150;2022-12-29T03:49:45;99617.63;;;15.95;63.26
62126;BME280;48112;53.282;6.150;2022-12-29T03:50:47;99618.41;;;15.96;63.20
62126;BME280;48112;53.282;6.150;2022-12-29T03:51:50;99621.13;;;15.96;63.02
62126;BME280;48112;53.282;6.150;2022-12-29T03:52:52;99629.28;;;15.96;63.00
62126;BME280;48112;53.282;6.150;2022-12-29T03:53:56;99624.25;;;15.94;63.09
62126;BME280;48112;53.282;6.150;2022-12-29T03:54:58;99631.22;;;15.95;63.00
62126;BME280;48112;53.282;6.150;2022-12-29T03:56:01;99628.50;;;15.95;63.12
62126;BME280;48112;53.282;6.150;2022-12-29T03:57:03;99627.75;;;15.95;63.22
62126;BME280;48112;53.282;6.150;2022-12-29T03:58:26;99623.06;;;15.95;63.21
62126;BME280;48112;53.282;6.150;2022-12-29T03:59:44;99630.47;;;15.95;62.94
62126;BME280;48112;53.282;6.150;2022-12-29T04:00:46;99629.69;;;15.94;63.06
62126;BME280;48112;53.282;6.150;2022-12-29T04:01:48;99624.25;;;15.94;63.01
62126;BME280;48112;53.282;6.150;2022-12-29T04:02:52;99626.97;;;15.94;63.00
62126;BME280;48112;53.282;6.150;2022-12-29T04:03:55;99626.97;;;15.94;63.06
62126;BME280;48112;53.282;6.150;2022-12-29T04:04:58;99632.41;;;15.94;63.02
62126;BME280;48112;53.282;6.150;2022-12-29T04:05:59;99626.97;;;15.94;63.29
62126;BME280;48112;53.282;6.150;2022-12-29T04:07:08;99618.81;;;15.94;63.04
62126;BME280;48112;53.282;6.150;2022-12-29T04:08:10;99616.88;;;15.95;63.14
62126;BME280;48112;53.282;6.150;2022-12-29T04:09:12;99629.69;;;15.94;62.99
62126;BME280;48112;53.282;6.150;2022-12-29T04:10:18;99626.19;;;15.94;63.23
62126;BME280;48112;53.282;6.150;2022-12-29T04:11:22;99631.63;;;15.94;63.11
62126;BME280;48112;53.282;6.150;2022-12-29T04:12:30;99626.97;;;15.94;63.04
62126;BME280;48112;53.282;6.150;2022-12-29T04:13:32;99618.81;;;15.94;62.99
62126;BME280;48112;53.282;6.150;2022-12-29T04:14:35;99627.75;;;15.95;63.28
62126;BME280;48112;53.282;6.150;2022-12-29T04:15:37;99633.19;;;15.95;63.18
62126;BME280;48112;53.282;6.150;2022-12-29T04:16:40;99631.63;;;15.94;63.03
62126;BME280;48112;53.282;6.150;2022-12-29T04:17:42;99614.56;;;15.93;63.31
62126;BME280;48112;53.282;6.150;2022-12-29T04:18:47;99631.63;;;15.94;62.99
62126;BME280;48112;53.282;6.150;2022-12-29T04:19:49;99635.13;;;15.94;62.93
62126;BME280;48112;53.282;6.150;2022-12-29T04:20:52;99620.00;;;15.93;63.02
62126;BME280;48112;53.282;6.150;2022-12-29T04:22:05;99628.16;;;15.93;63.14
62126;BME280;48112;53.282;6.150;2022-12-29T04:23:09;99637.06;;;15.94;63.21
62126;BME280;48112;53.282;6.150;2022-12-29T04:24:12;99633.59;;;15.93;63.08
62126;BME280;48112;53.282;6.150;2022-12-29T04:25:15;99634.75;;;15.92;62.94
62126;BME280;48112;53.282;6.150;2022-12-29T04:26:18;99632.03;;;15.92;62.85
62126;BME280;48112;53.282;6.150;2022-12-29T04:27:30;99642.53;;;15.94;63.19
62126;BME280;48112;53.282;6.150;2022-12-29T04:28:58;99641.78;;;15.93;63.16
62126;BME280;48112;53.282;6.150;2022-12-29T04:30:14;99641.78;;;15.93;62.93
62126;BME280;48112;53.282;6.150;2022-12-29T04:31:36;99651.09;;;15.92;63.24
62126;BME280;48112;53.282;6.150;2022-12-29T04:32:39;99641.78;;;15.93;62.97
62126;BME280;48112;53.282;6.150;2022-12-29T04:33:41;99653.81;;;15.92;63.04
62126;BME280;48112;53.282;6.150;2022-12-29T04:34:46;99647.22;;;15.93;62.93
62126;BME280;48112;53.282;6.150;2022-12-29T04:35:47;99641.00;;;15.93;63.14
62126;BME280;48112;53.282;6.150;2022-12-29T04:36:51;99648.38;;;15.92;63.22
62126;BME280;48112;53.282;6.150;2022-12-29T04:37:52;99645.66;;;15.92;63.00
62126;BME280;48112;53.282;6.150;2022-12-29T04:38:55;99641.00;;;15.93;63.08
62126;BME280;48112;53.282;6.150;2022-12-29T04:39:57;99645.66;;;15.92;62.98
62126;BME280;48112;53.282;6.150;2022-12-29T04:41:00;99637.47;;;15.92;63.06
62126;BME280;48112;53.282;6.150;2022-12-29T04:42:03;99651.09;;;15.92;63.09
62126;BME280;48112;53.282;6.150;2022-12-29T04:43:06;99640.22;;;15.92;63.13
62126;BME280;48112;53.282;6.150;2022-12-29T04:44:14;99649.16;;;15.93;63.15
62126;BME280;48112;53.282;6.150;2022-12-29T04:45:31;99645.66;;;15.92;62.97
62126;BME280;48112;53.282;6.150;2022-12-29T04:46:42;99651.09;;;15.92;63.28
62126;BME280;48112;53.282;6.150;2022-12-29T04:48:02;99651.09;;;15.92;62.96
62126;BME280;48112;53.282;6.150;2022-12-29T04:49:18;99647.63;;;15.92;62.99
62126;BME280;48112;53.282;6.150;2022-12-29T04:50:27;99650.34;;;15.92;63.02
62126;BME280;48112;53.282;6.150;2022-12-29T04:51:50;99650.34;;;15.92;62.89
62126;BME280;48112;53.282;6.150;2022-12-29T04:52:53;99653.81;;;15.92;63.17
62126;BME280;48112;53.282;6.150;2022-12-29T04:53:55;99644.13;;;15.91;63.04
62126;BME280;48112;53.282;6.150;2022-12-29T04:54:59;99644.13;;;15.91;63.20
62126;BME280;48112;53.282;6.150;2022-12-29T04:56:01;99655.00;;;15.91;63.17
62126;BME280;48112;53.282;6.150;2022-12-29T04:57:05;99645.66;;;15.92;63.17
62126;BME280;48112;53.282;6.150;2022-12-29T04:58:08;99655.00;;;15.91;63.04
62126;BME280;48112;53.282;6.150;2022-12-29T04:59:11;99652.28;;;15.91;62.99
62126;BME280;48112;53.282;6.150;2022-12-29T05:00:13;99647.63;;;15.92;63.19
62126;BME280;48112;53.282;6.150;2022-12-29T05:01:16;99649.56;;;15.91;63.15
62126;BME280;48112;53.282;6.150;2022-12-29T05:02:18;99643.34;;;15.91;62.95
62126;BME280;48112;53.282;6.150;2022-12-29T05:03:23;99651.09;;;15.92;63.50
62126;BME280;48112;53.282;6.150;2022-12-29T05:04:25;99646.84;;;15.91;62.96
62126;BME280;48112;53.282;6.150;2022-12-29T05:05:29;99638.69;;;15.91;62.89
62126;BME280;48112;53.282;6.150;2022-12-29T05:06:32;99646.84;;;15.91;62.95
62126;BME280;48112;53.282;6.150;2022-12-29T05:07:34;99649.56;;;15.91;63.01
62126;BME280;48112;53.282;6.150;2022-12-29T05:08:36;99648.00;;;15.90;63.00
62126;BME280;48112;53.282;6.150;2022-12-29T05:09:39;99641.41;;;15.91;63.24
62126;BME280;48112;53.282;6.150;2022-12-29T05:10:43;99648.00;;;15.90;63.00
62126;BME280;48112;53.282;6.150;2022-12-29T05:11:46;99641.81;;;15.90;63.12
62126;BME280;48112;53.282;6.150;2022-12-29T05:12:48;99642.56;;;15.90;62.97
62126;BME280;48112;53.282;6.150;2022-12-29T05:13:51;99648.00;;;15.90;63.00
62126;BME280;48112;53.282;6.150;2022-12-29T05:14:53;99649.56;;;15.91;63.21
62126;BME280;48112;53.282;6.150;2022-12-29T05:15:56;99648.00;;;15.90;63.22
62126;BME280;48112;53.282;6.150;2022-12-29T05:16:58;99648.00;;;15.90;63.06
62126;BME280;48112;53.282;6.150;2022-12-29T05:18:01;99651.50;;;15.91;63.23
62126;BME280;48112;53.282;6.150;2022-12-29T05:19:03;99648.00;;;15.90;63.21
62126;BME280;48112;53.282;6.150;2022-12-29T05:20:07;99652.28;;;15.91;62.99
62126;BME280;48112;53.282;6.150;2022-12-29T05:21:11;99657.72;;;15.91;62.93
62126;BME280;48112;53.282;6.150;2022-12-29T05:22:15;99646.84;;;15.91;62.98
62126;BME280;48112;53.282;6.150;2022-12-29T05:23:18;99641.81;;;15.90;62.90
62126;BME280;48112;53.282;6.150;2022-12-29T05:24:35;99637.09;;;15.90;63.09
62126;BME280;48112;53.282;6.150;2022-12-29T05:25:37;99642.56;;;15.90;63.17
62126;BME280;48112;53.282;6.150;2022-12-29T05:27:06;99643.34;;;15.91;62.97
62126;BME280;48112;53.282;6.150;2022-12-29T05:28:28;99637.09;;;15.90;63.25
62126;BME280;48112;53.282;6.150;2022-12-29T05:29:40;99639.84;;;15.90;63.13
62126;BME280;48112;53.282;6.150;2022-12-29T05:30:42;99644.53;;;15.90;62.99
62126;BME280;48112;53.282;6.150;2022-12-29T05:31:44;99642.56;;;15.90;63.24
62126;BME280;48112;53.282;6.150;2022-12-29T05:32:46;99649.19;;;15.89;63.11
62126;BME280;48112;53.282;6.150;2022-12-29T05:33:49;99639.06;;;15.90;62.97
62126;BME280;48112;53.282;6.150;2022-12-29T05:34:51;99648.00;;;15.90;63.09
62126;BME280;48112;53.282;6.150;2022-12-29T05:35:54;99645.28;;;15.90;63.27
62126;BME280;48112;53.282;6.150;2022-12-29T05:36:58;99650.72;;;15.90;63.17
62126;BME280;48112;53.282;6.150;2022-12-29T05:38:02;99641.03;;;15.89;63.12
62126;BME280;48112;53.282;6.150;2022-12-29T05:39:05;99632.84;;;15.89;62.91
62126;BME280;48112;53.282;6.150;2022-12-29T05:40:09;99652.69;;;15.90;63.17
62126;BME280;48112;53.282;6.150;2022-12-29T05:41:11;99646.47;;;15.89;63.15
62126;BME280;48112;53.282;6.150;2022-12-29T05:42:34;99651.91;;;15.89;62.96
62126;BME280;48112;53.282;6.150;2022-12-29T05:44:03;99646.47;;;15.89;62.93
62126;BME280;48112;53.282;6.150;2022-12-29T05:45:26;99645.69;;;15.89;63.17
62126;BME280;48112;53.282;6.150;2022-12-29T05:46:48;99658.13;;;15.90;63.14
62126;BME280;48112;53.282;6.150;2022-12-29T05:48:09;99649.97;;;15.90;63.15
62126;BME280;48112;53.282;6.150;2022-12-29T05:49:36;99649.19;;;15.89;63.17
62126;BME280;48112;53.282;6.150;2022-12-29T05:50:52;99662.00;;;15.89;62.93
62126;BME280;48112;53.282;6.150;2022-12-29T05:52:00;99656.56;;;15.89;62.94
62126;BME280;48112;53.282;6.150;2022-12-29T05:53:03;99645.28;;;15.90;63.25
62126;BME280;48112;53.282;6.150;2022-12-29T05:54:05;99661.25;;;15.88;62.92
62126;BME280;48112;53.282;6.150;2022-12-29T05:55:08;99671.75;;;15.90;63.08